Williams, Arizona
Current Conditions -  °F | °C
As of 2:57 PM on Wednesday 28 Jan 2015 (Local Time) from KFLG Reporting Station
Clear Clear  
Wind Chill: 55°   Ceiling: Unl
Heat Index: 55°   Visibility: 10mi
Dew Point: 19°   Wind: 0mph
Humidity: 24%   Direction: NA
Pressure: 30.22"   Gusts: NA
Location:  35.25°N, 112.19°W
Report Text: KFLG 282157Z 00000KT 10SM CLR 13/M07 A3022 RMK AO2 SLP197 T01281072
Loading
Personal Weather Stations






























Interactive Weather Map New forecast layout! Learn more

10-Day Weather Forecast

Advertisements
Track Severe Weather on mobile